sensor_id;sensor_type;location;lat;lon;timestamp;pressure;altitude;pressure_sealevel;temperature;humidity
22181;BME280;11256;50.830;12.834;2023-04-26T00:01:29;97458.78;;;7.80;55.73
22181;BME280;11256;50.830;12.834;2023-04-26T00:06:29;97460.69;;;7.70;55.72
22181;BME280;11256;50.830;12.834;2023-04-26T00:11:30;97465.81;;;7.71;55.71
22181;BME280;11256;50.830;12.834;2023-04-26T00:16:30;97461.19;;;7.67;56.16
22181;BME280;11256;50.830;12.834;2023-04-26T00:21:31;97471.44;;;7.60;56.34
22181;BME280;11256;50.830;12.834;2023-04-26T00:26:31;97459.28;;;7.52;56.01
22181;BME280;11256;50.830;12.834;2023-04-26T00:31:33;97459.03;;;7.49;56.38
22181;BME280;11256;50.830;12.834;2023-04-26T00:36:33;97476.56;;;7.61;56.40
22181;BME280;11256;50.830;12.834;2023-04-26T00:41:34;97469.81;;;7.54;56.35
22181;BME280;11256;50.830;12.834;2023-04-26T00:46:34;97471.41;;;7.50;56.50
22181;BME280;11256;50.830;12.834;2023-04-26T00:51:35;97481.94;;;7.51;56.51
22181;BME280;11256;50.830;12.834;2023-04-26T00:56:37;97467.63;;;7.41;56.14
22181;BME280;11256;50.830;12.834;2023-04-26T01:01:38;97479.47;;;7.40;56.32
22181;BME280;11256;50.830;12.834;2023-04-26T01:06:39;97481.66;;;7.43;56.48
22181;BME280;11256;50.830;12.834;2023-04-26T01:11:41;97490.56;;;7.43;57.13
22181;BME280;11256;50.830;12.834;2023-04-26T01:16:43;97494.84;;;7.39;56.54
22181;BME280;11256;50.830;12.834;2023-04-26T01:21:46;97495.38;;;7.36;56.95
22181;BME280;11256;50.830;12.834;2023-04-26T01:26:48;97489.69;;;7.28;56.49
22181;BME280;11256;50.830;12.834;2023-04-26T01:31:48;97495.91;;;7.33;56.79
22181;BME280;11256;50.830;12.834;2023-04-26T01:36:49;97477.25;;;7.17;56.71
22181;BME280;11256;50.830;12.834;2023-04-26T01:41:49;97496.41;;;7.25;57.00
22181;BME280;11256;50.830;12.834;2023-04-26T01:46:49;97489.63;;;7.18;56.78
22181;BME280;11256;50.830;12.834;2023-04-26T01:51:50;97496.09;;;7.12;56.71
22181;BME280;11256;50.830;12.834;2023-04-26T01:56:50;97501.47;;;7.12;57.11
22181;BME280;11256;50.830;12.834;2023-04-26T02:01:51;97498.75;;;7.07;57.23
22181;BME280;11256;50.830;12.834;2023-04-26T02:06:51;97505.19;;;7.01;57.20
22181;BME280;11256;50.830;12.834;2023-04-26T02:11:52;97506.25;;;6.95;57.58
22181;BME280;11256;50.830;12.834;2023-04-26T02:16:52;97500.78;;;6.85;57.04
22181;BME280;11256;50.830;12.834;2023-04-26T02:21:54;97477.50;;;6.64;57.35
22181;BME280;11256;50.830;12.834;2023-04-26T02:26:54;97505.91;;;6.81;57.64
22181;BME280;11256;50.830;12.834;2023-04-26T02:31:59;97513.19;;;6.81;57.67
22181;BME280;11256;50.830;12.834;2023-04-26T02:36:59;97505.09;;;6.81;57.74
22181;BME280;11256;50.830;12.834;2023-04-26T02:42:00;97506.44;;;6.78;56.98
22181;BME280;11256;50.830;12.834;2023-04-26T02:47:01;97499.41;;;6.77;57.40
22181;BME280;11256;50.830;12.834;2023-04-26T02:52:01;97502.91;;;6.78;57.41
22181;BME280;11256;50.830;12.834;2023-04-26T02:57:02;97499.94;;;6.74;57.04
22181;BME280;11256;50.830;12.834;2023-04-26T03:02:03;97518.50;;;6.71;57.71
22181;BME280;11256;50.830;12.834;2023-04-26T03:07:03;97504.75;;;6.67;57.57
22181;BME280;11256;50.830;12.834;2023-04-26T03:12:07;97507.13;;;6.64;58.03
22181;BME280;11256;50.830;12.834;2023-04-26T03:17:09;97486.13;;;6.61;57.73
22181;BME280;11256;50.830;12.834;2023-04-26T03:22:10;97498.81;;;6.65;57.65
22181;BME280;11256;50.830;12.834;2023-04-26T03:27:15;97502.03;;;6.62;57.63
22181;BME280;11256;50.830;12.834;2023-04-26T03:32:15;97497.13;;;6.54;57.96
22181;BME280;11256;50.830;12.834;2023-04-26T03:37:16;97482.78;;;6.44;57.65
22181;BME280;11256;50.830;12.834;2023-04-26T03:42:19;97511.34;;;6.50;57.98
22181;BME280;11256;50.830;12.834;2023-04-26T03:47:20;97488.09;;;6.34;57.73
22181;BME280;11256;50.830;12.834;2023-04-26T03:52:20;97517.19;;;6.42;57.88
22181;BME280;11256;50.830;12.834;2023-04-26T03:57:21;97512.28;;;6.29;58.14
22181;BME280;11256;50.830;12.834;2023-04-26T04:02:21;97507.09;;;6.22;58.07
22181;BME280;11256;50.830;12.834;2023-04-26T04:07:23;97525.72;;;6.29;58.36
22181;BME280;11256;50.830;12.834;2023-04-26T04:12:23;97526.78;;;6.28;58.24
22181;BME280;11256;50.830;12.834;2023-04-26T04:17:24;97525.19;;;6.27;58.44
22181;BME280;11256;50.830;12.834;2023-04-26T04:22:25;97512.44;;;6.17;58.39
22181;BME280;11256;50.830;12.834;2023-04-26T04:27:26;97535.94;;;6.27;58.31
22181;BME280;11256;50.830;12.834;2023-04-26T04:32:26;97532.72;;;6.30;58.22
22181;BME280;11256;50.830;12.834;2023-04-26T04:37:28;97527.03;;;6.26;58.91
22181;BME280;11256;50.830;12.834;2023-04-26T04:42:29;97531.06;;;6.24;58.89
22181;BME280;11256;50.830;12.834;2023-04-26T04:47:31;97553.84;;;6.43;59.20
22181;BME280;11256;50.830;12.834;2023-04-26T04:52:33;97560.34;;;6.52;59.57
22181;BME280;11256;50.830;12.834;2023-04-26T04:57:33;97572.06;;;6.72;59.95
22181;BME280;11256;50.830;12.834;2023-04-26T05:02:35;97570.59;;;6.91;60.59
22181;BME280;11256;50.830;12.834;2023-04-26T05:07:36;97580.84;;;7.41;59.16
22181;BME280;11256;50.830;12.834;2023-04-26T05:12:36;97569.66;;;7.84;59.89
22181;BME280;11256;50.830;12.834;2023-04-26T05:17:37;97581.13;;;8.31;58.88
22181;BME280;11256;50.830;12.834;2023-04-26T05:22:52;97584.38;;;8.83;57.88
22181;BME280;11256;50.830;12.834;2023-04-26T05:27:52;97587.25;;;9.31;57.03
22181;BME280;11256;50.830;12.834;2023-04-26T05:33:13;97575.81;;;9.54;54.78
22181;BME280;11256;50.830;12.834;2023-04-26T05:38:20;97587.50;;;9.98;55.04
22181;BME280;11256;50.830;12.834;2023-04-26T05:43:21;97605.72;;;10.36;54.71
22181;BME280;11256;50.830;12.834;2023-04-26T05:48:23;97610.53;;;10.83;54.31
22181;BME280;11256;50.830;12.834;2023-04-26T05:53:24;97590.88;;;11.01;52.56
22181;BME280;11256;50.830;12.834;2023-04-26T05:58:25;97618.97;;;11.38;52.69
22181;BME280;11256;50.830;12.834;2023-04-26T06:03:26;97610.09;;;11.33;50.37
22181;BME280;11256;50.830;12.834;2023-04-26T06:08:27;97615.59;;;11.98;49.00
22181;BME280;11256;50.830;12.834;2023-04-26T06:13:28;97619.16;;;12.36;49.49
22181;BME280;11256;50.830;12.834;2023-04-26T06:18:28;97614.25;;;12.56;48.74
22181;BME280;11256;50.830;12.834;2023-04-26T06:23:29;97622.53;;;13.02;48.43
22181;BME280;11256;50.830;12.834;2023-04-26T06:28:29;97620.81;;;12.87;45.83
22181;BME280;11256;50.830;12.834;2023-04-26T06:33:30;97619.22;;;13.50;46.93
22181;BME280;11256;50.830;12.834;2023-04-26T06:38:31;97618.66;;;12.71;45.18
22181;BME280;11256;50.830;12.834;2023-04-26T06:43:32;97616.50;;;12.68;44.84
22181;BME280;11256;50.830;12.834;2023-04-26T06:48:40;97620.75;;;12.74;45.46
22181;BME280;11256;50.830;12.834;2023-04-26T06:53:40;97629.53;;;12.52;45.50
22181;BME280;11256;50.830;12.834;2023-04-26T06:58:57;97625.00;;;12.06;45.44
22181;BME280;11256;50.830;12.834;2023-04-26T07:03:59;97631.88;;;12.22;45.55
22181;BME280;11256;50.830;12.834;2023-04-26T07:09:00;97629.53;;;11.92;46.46
22181;BME280;11256;50.830;12.834;2023-04-26T07:14:03;97635.31;;;11.85;46.38
22181;BME280;11256;50.830;12.834;2023-04-26T07:19:04;97632.44;;;11.77;46.76
22181;BME280;11256;50.830;12.834;2023-04-26T07:24:05;97641.09;;;11.79;46.45
22181;BME280;11256;50.830;12.834;2023-04-26T07:29:05;97637.16;;;11.90;47.02
22181;BME280;11256;50.830;12.834;2023-04-26T07:34:06;97630.47;;;12.24;47.43
22181;BME280;11256;50.830;12.834;2023-04-26T07:39:07;97633.41;;;12.28;45.90
22181;BME280;11256;50.830;12.834;2023-04-26T07:44:09;97625.19;;;12.33;46.51
22181;BME280;11256;50.830;12.834;2023-04-26T07:49:10;97624.44;;;12.46;45.02
22181;BME280;11256;50.830;12.834;2023-04-26T07:54:10;97649.19;;;12.44;44.39
22181;BME280;11256;50.830;12.834;2023-04-26T07:59:10;97652.41;;;11.86;44.27
22181;BME280;11256;50.830;12.834;2023-04-26T08:04:11;97640.50;;;12.05;44.23
22181;BME280;11256;50.830;12.834;2023-04-26T08:09:11;97652.59;;;12.55;44.55
22181;BME280;11256;50.830;12.834;2023-04-26T08:14:11;97643.53;;;12.22;43.90
22181;BME280;11256;50.830;12.834;2023-04-26T08:19:12;97651.94;;;12.02;43.92
22181;BME280;11256;50.830;12.834;2023-04-26T08:24:12;97645.88;;;12.29;44.40
22181;BME280;11256;50.830;12.834;2023-04-26T08:29:12;97649.75;;;13.02;44.45
22181;BME280;11256;50.830;12.834;2023-04-26T08:34:14;97657.56;;;13.67;42.92
22181;BME280;11256;50.830;12.834;2023-04-26T08:39:14;97624.69;;;14.04;42.23
22181;BME280;11256;50.830;12.834;2023-04-26T08:44:18;97661.56;;;13.56;40.55
22181;BME280;11256;50.830;12.834;2023-04-26T08:49:43;97659.16;;;13.23;41.07
22181;BME280;11256;50.830;12.834;2023-04-26T08:54:45;97646.97;;;13.20;41.44
22181;BME280;11256;50.830;12.834;2023-04-26T08:59:46;97661.72;;;13.78;41.88
22181;BME280;11256;50.830;12.834;2023-04-26T09:04:48;97663.13;;;13.76;41.15
22181;BME280;11256;50.830;12.834;2023-04-26T09:09:49;97666.22;;;13.56;41.13
22181;BME280;11256;50.830;12.834;2023-04-26T09:14:50;97663.69;;;13.14;40.96
22181;BME280;11256;50.830;12.834;2023-04-26T09:19:52;97656.03;;;12.60;41.08
22181;BME280;11256;50.830;12.834;2023-04-26T09:24:53;97658.91;;;12.69;42.15
22181;BME280;11256;50.830;12.834;2023-04-26T09:34:56;97662.38;;;12.93;42.36
22181;BME280;11256;50.830;12.834;2023-04-26T09:39:56;97660.16;;;13.45;43.06
22181;BME280;11256;50.830;12.834;2023-04-26T09:45:04;97662.09;;;13.72;42.33
22181;BME280;11256;50.830;12.834;2023-04-26T09:50:05;97655.78;;;14.03;41.21
22181;BME280;11256;50.830;12.834;2023-04-26T09:55:07;97660.59;;;13.79;40.22
22181;BME280;11256;50.830;12.834;2023-04-26T10:00:07;97663.38;;;13.61;40.77
22181;BME280;11256;50.830;12.834;2023-04-26T10:05:11;97664.97;;;13.35;40.60
22181;BME280;11256;50.830;12.834;2023-04-26T10:10:12;97669.97;;;13.28;41.21
22181;BME280;11256;50.830;12.834;2023-04-26T10:15:13;97671.66;;;13.10;41.53
22181;BME280;11256;50.830;12.834;2023-04-26T10:20:15;97652.38;;;12.70;41.90
22181;BME280;11256;50.830;12.834;2023-04-26T10:25:17;97666.75;;;12.52;41.27
22181;BME280;11256;50.830;12.834;2023-04-26T10:30:19;97652.81;;;12.58;41.13
22181;BME280;11256;50.830;12.834;2023-04-26T10:35:23;97652.59;;;12.73;41.71
22181;BME280;11256;50.830;12.834;2023-04-26T10:40:31;97643.13;;;12.71;41.50
22181;BME280;11256;50.830;12.834;2023-04-26T10:45:31;97664.81;;;12.76;41.60
22181;BME280;11256;50.830;12.834;2023-04-26T10:50:32;97660.00;;;12.68;41.71
22181;BME280;11256;50.830;12.834;2023-04-26T11:01:03;97653.09;;;12.57;42.53
22181;BME280;11256;50.830;12.834;2023-04-26T11:06:08;97648.97;;;12.41;42.09
22181;BME280;11256;50.830;12.834;2023-04-26T11:11:10;97636.13;;;12.28;41.89
22181;BME280;11256;50.830;12.834;2023-04-26T11:16:14;97656.13;;;12.37;41.86
22181;BME280;11256;50.830;12.834;2023-04-26T11:21:15;97658.38;;;12.30;42.00
22181;BME280;11256;50.830;12.834;2023-04-26T11:26:18;97654.72;;;12.21;41.91
22181;BME280;11256;50.830;12.834;2023-04-26T11:31:18;97639.56;;;12.15;41.87
22181;BME280;11256;50.830;12.834;2023-04-26T11:36:19;97616.66;;;12.21;41.87
22181;BME280;11256;50.830;12.834;2023-04-26T11:41:22;97632.03;;;12.30;42.55
22181;BME280;11256;50.830;12.834;2023-04-26T11:46:22;97643.25;;;12.42;41.35
22181;BME280;11256;50.830;12.834;2023-04-26T11:51:23;97639.81;;;12.37;41.17
22181;BME280;11256;50.830;12.834;2023-04-26T11:56:24;97645.09;;;12.28;41.24
22181;BME280;11256;50.830;12.834;2023-04-26T12:01:25;97645.31;;;12.32;41.67
22181;BME280;11256;50.830;12.834;2023-04-26T12:06:43;97656.97;;;12.32;41.37
22181;BME280;11256;50.830;12.834;2023-04-26T12:11:47;97631.94;;;12.17;41.86
22181;BME280;11256;50.830;12.834;2023-04-26T12:16:52;97647.06;;;12.23;41.58
22181;BME280;11256;50.830;12.834;2023-04-26T12:21:52;97641.63;;;12.23;42.52
22181;BME280;11256;50.830;12.834;2023-04-26T12:26:53;97624.59;;;12.36;42.13
22181;BME280;11256;50.830;12.834;2023-04-26T12:31:54;97640.63;;;12.56;42.42
22181;BME280;11256;50.830;12.834;2023-04-26T12:36:54;97628.78;;;12.47;43.11
22181;BME280;11256;50.830;12.834;2023-04-26T12:41:55;97644.44;;;12.55;42.54
22181;BME280;11256;50.830;12.834;2023-04-26T12:46:56;97639.09;;;12.50;42.33
22181;BME280;11256;50.830;12.834;2023-04-26T12:51:56;97634.97;;;12.52;42.39
22181;BME280;11256;50.830;12.834;2023-04-26T12:56:57;97632.25;;;12.52;42.22
22181;BME280;11256;50.830;12.834;2023-04-26T13:01:57;97646.06;;;12.56;42.66
22181;BME280;11256;50.830;12.834;2023-04-26T13:06:57;97645.03;;;12.52;41.29
22181;BME280;11256;50.830;12.834;2023-04-26T13:11:58;97646.19;;;12.46;40.92
22181;BME280;11256;50.830;12.834;2023-04-26T13:16:58;97643.41;;;12.51;42.11
22181;BME280;11256;50.830;12.834;2023-04-26T13:22:01;97632.16;;;12.76;41.97
22181;BME280;11256;50.830;12.834;2023-04-26T13:27:02;97639.34;;;12.85;41.69
22181;BME280;11256;50.830;12.834;2023-04-26T13:32:02;97640.56;;;12.98;41.58
22181;BME280;11256;50.830;12.834;2023-04-26T13:37:03;97649.25;;;12.95;41.58
22181;BME280;11256;50.830;12.834;2023-04-26T13:42:03;97649.75;;;13.02;41.91
22181;BME280;11256;50.830;12.834;2023-04-26T13:47:04;97644.81;;;13.04;42.06
22181;BME280;11256;50.830;12.834;2023-04-26T13:52:05;97654.41;;;13.15;42.05
22181;BME280;11256;50.830;12.834;2023-04-26T13:57:05;97664.41;;;13.19;41.25
22181;BME280;11256;50.830;12.834;2023-04-26T14:02:08;97660.19;;;13.27;41.10
22181;BME280;11256;50.830;12.834;2023-04-26T14:07:09;97665.06;;;13.30;40.50
22181;BME280;11256;50.830;12.834;2023-04-26T14:12:10;97658.59;;;13.26;40.14
22181;BME280;11256;50.830;12.834;2023-04-26T14:17:10;97662.47;;;13.38;40.71
22181;BME280;11256;50.830;12.834;2023-04-26T14:22:10;97681.00;;;13.50;39.33
22181;BME280;11256;50.830;12.834;2023-04-26T14:27:11;97667.19;;;13.46;40.00
22181;BME280;11256;50.830;12.834;2023-04-26T14:32:12;97668.84;;;13.61;40.08
22181;BME280;11256;50.830;12.834;2023-04-26T14:37:13;97679.06;;;13.69;40.23
22181;BME280;11256;50.830;12.834;2023-04-26T14:42:16;97671.50;;;13.79;39.66
22181;BME280;11256;50.830;12.834;2023-04-26T14:47:16;97666.88;;;13.80;38.98
22181;BME280;11256;50.830;12.834;2023-04-26T14:52:17;97666.25;;;13.83;39.33
22181;BME280;11256;50.830;12.834;2023-04-26T14:57:17;97668.97;;;13.83;38.81
22181;BME280;11256;50.830;12.834;2023-04-26T15:02:18;97667.44;;;13.77;39.52
22181;BME280;11256;50.830;12.834;2023-04-26T15:07:18;97658.38;;;13.68;38.67
22181;BME280;11256;50.830;12.834;2023-04-26T15:12:18;97669.38;;;13.63;39.56
22181;BME280;11256;50.830;12.834;2023-04-26T15:17:18;97671.47;;;13.66;39.30
22181;BME280;11256;50.830;12.834;2023-04-26T15:22:19;97662.97;;;13.54;39.31
22181;BME280;11256;50.830;12.834;2023-04-26T15:27:19;97670.03;;;13.55;39.66
22181;BME280;11256;50.830;12.834;2023-04-26T15:32:20;97670.31;;;13.40;38.82
22181;BME280;11256;50.830;12.834;2023-04-26T15:37:20;97659.72;;;13.38;39.37
22181;BME280;11256;50.830;12.834;2023-04-26T15:42:20;97666.59;;;13.36;40.21
22181;BME280;11256;50.830;12.834;2023-04-26T15:47:21;97667.38;;;13.36;38.76
22181;BME280;11256;50.830;12.834;2023-04-26T15:52:21;97664.94;;;13.21;39.77
22181;BME280;11256;50.830;12.834;2023-04-26T15:57:22;97665.72;;;13.22;40.38
22181;BME280;11256;50.830;12.834;2023-04-26T16:02:22;97662.50;;;13.20;40.58
22181;BME280;11256;50.830;12.834;2023-04-26T16:07:22;97672.19;;;13.26;39.93
22181;BME280;11256;50.830;12.834;2023-04-26T16:12:23;97672.16;;;13.12;40.76
22181;BME280;11256;50.830;12.834;2023-04-26T16:17:23;97672.97;;;13.13;39.74
22181;BME280;11256;50.830;12.834;2023-04-26T16:22:23;97666.28;;;13.05;40.01
22181;BME280;11256;50.830;12.834;2023-04-26T16:27:24;97669.06;;;13.00;39.97
22181;BME280;11256;50.830;12.834;2023-04-26T16:32:25;97669.41;;;12.94;40.38
22181;BME280;11256;50.830;12.834;2023-04-26T16:37:26;97655.59;;;12.72;40.36
22181;BME280;11256;50.830;12.834;2023-04-26T16:42:28;97658.53;;;12.75;40.05
22181;BME280;11256;50.830;12.834;2023-04-26T16:47:29;97667.88;;;12.69;41.16
22181;BME280;11256;50.830;12.834;2023-04-26T16:52:30;97665.66;;;12.71;41.16
22181;BME280;11256;50.830;12.834;2023-04-26T16:57:30;97661.63;;;12.69;40.97
22181;BME280;11256;50.830;12.834;2023-04-26T17:02:31;97653.56;;;12.64;41.13
22181;BME280;11256;50.830;12.834;2023-04-26T17:07:32;97660.00;;;12.49;41.12
22181;BME280;11256;50.830;12.834;2023-04-26T17:12:32;97670.94;;;12.44;41.10
22181;BME280;11256;50.830;12.834;2023-04-26T17:17:32;97658.84;;;12.37;41.70
22181;BME280;11256;50.830;12.834;2023-04-26T17:22:33;97671.31;;;12.38;42.18
22181;BME280;11256;50.830;12.834;2023-04-26T17:27:33;97692.91;;;12.29;42.34
22181;BME280;11256;50.830;12.834;2023-04-26T17:32:33;97693.81;;;12.20;42.63
22181;BME280;11256;50.830;12.834;2023-04-26T17:37:34;97690.88;;;12.16;42.63
22181;BME280;11256;50.830;12.834;2023-04-26T17:42:34;97690.66;;;12.13;42.77
22181;BME280;11256;50.830;12.834;2023-04-26T17:47:35;97693.19;;;12.04;43.30
22181;BME280;11256;50.830;12.834;2023-04-26T17:52:36;97686.59;;;11.87;43.04
22181;BME280;11256;50.830;12.834;2023-04-26T17:57:36;97709.16;;;11.87;43.21
22181;BME280;11256;50.830;12.834;2023-04-26T18:02:36;97709.00;;;11.74;43.21
22181;BME280;11256;50.830;12.834;2023-04-26T18:07:37;97720.16;;;11.72;43.43
22181;BME280;11256;50.830;12.834;2023-04-26T18:12:37;97717.78;;;11.66;43.43
22181;BME280;11256;50.830;12.834;2023-04-26T18:17:39;97708.63;;;11.57;43.53
22181;BME280;11256;50.830;12.834;2023-04-26T18:22:40;97717.06;;;11.50;43.62
22181;BME280;11256;50.830;12.834;2023-04-26T18:27:40;97700.69;;;11.32;43.46
22181;BME280;11256;50.830;12.834;2023-04-26T18:32:41;97721.03;;;11.34;43.43
22181;BME280;11256;50.830;12.834;2023-04-26T18:37:41;97718.16;;;11.21;43.83
22181;BME280;11256;50.830;12.834;2023-04-26T18:42:41;97724.72;;;11.15;43.57
22181;BME280;11256;50.830;12.834;2023-04-26T18:47:44;97737.19;;;11.11;43.68
22181;BME280;11256;50.830;12.834;2023-04-26T18:52:44;97742.97;;;11.04;43.64
22181;BME280;11256;50.830;12.834;2023-04-26T18:57:45;97742.19;;;10.99;44.40
22181;BME280;11256;50.830;12.834;2023-04-26T19:02:45;97739.53;;;10.89;44.59
22181;BME280;11256;50.830;12.834;2023-04-26T19:07:45;97750.94;;;10.86;44.38
22181;BME280;11256;50.830;12.834;2023-04-26T19:12:46;97748.81;;;10.78;44.60
22181;BME280;11256;50.830;12.834;2023-04-26T19:17:47;97762.97;;;10.70;44.78
22181;BME280;11256;50.830;12.834;2023-04-26T19:22:47;97761.66;;;10.62;44.93
22181;BME280;11256;50.830;12.834;2023-04-26T19:27:48;97756.59;;;10.46;44.82
22181;BME280;11256;50.830;12.834;2023-04-26T19:32:49;97762.28;;;10.44;44.81
22181;BME280;11256;50.830;12.834;2023-04-26T19:37:49;97763.66;;;10.37;45.18
22181;BME280;11256;50.830;12.834;2023-04-26T19:42:49;97745.31;;;10.19;45.55
22181;BME280;11256;50.830;12.834;2023-04-26T19:47:50;97765.34;;;10.18;45.69
22181;BME280;11256;50.830;12.834;2023-04-26T19:52:50;97773.78;;;10.11;45.83
22181;BME280;11256;50.830;12.834;2023-04-26T19:57:51;97764.03;;;10.00;46.11
22181;BME280;11256;50.830;12.834;2023-04-26T20:02:51;97782.97;;;9.95;45.97
22181;BME280;11256;50.830;12.834;2023-04-26T20:07:54;97780.03;;;9.87;46.17
22181;BME280;11256;50.830;12.834;2023-04-26T20:12:56;97758.38;;;9.72;46.33
22181;BME280;11256;50.830;12.834;2023-04-26T20:17:57;97771.91;;;9.72;46.56
22181;BME280;11256;50.830;12.834;2023-04-26T20:22:58;97755.69;;;9.62;46.47
22181;BME280;11256;50.830;12.834;2023-04-26T20:27:58;97761.94;;;9.52;46.94
22181;BME280;11256;50.830;12.834;2023-04-26T20:33:01;97771.66;;;9.53;46.79
22181;BME280;11256;50.830;12.834;2023-04-26T20:38:01;97766.53;;;9.47;47.10
22181;BME280;11256;50.830;12.834;2023-04-26T20:43:02;97767.06;;;9.39;46.98
22181;BME280;11256;50.830;12.834;2023-04-26T20:48:15;97776.28;;;9.38;47.45
22181;BME280;11256;50.830;12.834;2023-04-26T20:53:15;97767.06;;;9.29;47.22
22181;BME280;11256;50.830;12.834;2023-04-26T20:58:16;97770.59;;;9.24;47.25
22181;BME280;11256;50.830;12.834;2023-04-26T21:03:16;97768.69;;;9.20;47.28
22181;BME280;11256;50.830;12.834;2023-04-26T21:08:17;97759.50;;;9.11;47.40
22181;BME280;11256;50.830;12.834;2023-04-26T21:13:17;97755.16;;;9.05;47.57
22181;BME280;11256;50.830;12.834;2023-04-26T21:18:17;97774.63;;;9.12;47.45
22181;BME280;11256;50.830;12.834;2023-04-26T21:23:18;97774.63;;;9.07;47.52
22181;BME280;11256;50.830;12.834;2023-04-26T21:28:18;97761.09;;;8.97;47.11
22181;BME280;11256;50.830;12.834;2023-04-26T21:33:18;97779.75;;;8.98;47.66
22181;BME280;11256;50.830;12.834;2023-04-26T21:38:19;97779.19;;;8.91;47.53
22181;BME280;11256;50.830;12.834;2023-04-26T21:43:19;97782.41;;;8.88;47.86
22181;BME280;11256;50.830;12.834;2023-04-26T21:48:20;97775.91;;;8.84;48.01
22181;BME280;11256;50.830;12.834;2023-04-26T21:53:21;97777.81;;;8.79;47.97
22181;BME280;11256;50.830;12.834;2023-04-26T21:58:21;97792.41;;;8.78;48.04
22181;BME280;11256;50.830;12.834;2023-04-26T22:03:22;97792.13;;;8.74;48.05
22181;BME280;11256;50.830;12.834;2023-04-26T22:08:22;97787.47;;;8.65;48.27
22181;BME280;11256;50.830;12.834;2023-04-26T22:13:22;97796.16;;;8.67;48.32
22181;BME280;11256;50.830;12.834;2023-04-26T22:18:23;97789.66;;;8.63;48.38
22181;BME280;11256;50.830;12.834;2023-04-26T22:23:24;97795.28;;;8.56;48.42
22181;BME280;11256;50.830;12.834;2023-04-26T22:28:25;97805.31;;;8.56;48.35
22181;BME280;11256;50.830;12.834;2023-04-26T22:33:25;97802.56;;;8.51;48.62
22181;BME280;11256;50.830;12.834;2023-04-26T22:38:26;97813.91;;;8.48;48.67
22181;BME280;11256;50.830;12.834;2023-04-26T22:43:26;97798.50;;;8.43;48.67
22181;BME280;11256;50.830;12.834;2023-04-26T22:48:26;97800.91;;;8.40;48.85
22181;BME280;11256;50.830;12.834;2023-04-26T22:53:27;97813.84;;;8.38;48.92
22181;BME280;11256;50.830;12.834;2023-04-26T22:58:27;97786.22;;;8.21;48.79
22181;BME280;11256;50.830;12.834;2023-04-26T23:03:27;97813.28;;;8.31;48.87
22181;BME280;11256;50.830;12.834;2023-04-26T23:08:28;97815.97;;;8.31;49.18
22181;BME280;11256;50.830;12.834;2023-04-26T23:13:28;97815.16;;;8.25;48.93
22181;BME280;11256;50.830;12.834;2023-04-26T23:18:30;97811.00;;;8.13;48.88
22181;BME280;11256;50.830;12.834;2023-04-26T23:23:30;97815.84;;;8.11;48.91
22181;BME280;11256;50.830;12.834;2023-04-26T23:28:30;97811.19;;;8.01;49.11
22181;BME280;11256;50.830;12.834;2023-04-26T23:33:31;97808.72;;;7.95;48.93
22181;BME280;11256;50.830;12.834;2023-04-26T23:38:31;97813.56;;;7.93;49.29
22181;BME280;11256;50.830;12.834;2023-04-26T23:43:31;97800.56;;;7.80;49.31
22181;BME280;11256;50.830;12.834;2023-04-26T23:48:32;97815.66;;;7.81;49.29
22181;BME280;11256;50.830;12.834;2023-04-26T23:53:32;97808.03;;;7.73;49.38
22181;BME280;11256;50.830;12.834;2023-04-26T23:58:32;97805.56;;;7.66;49.69
